Lovundjenta — LK7468 — position and weather

sailwx.info

Track history (hours):
 
Tides and Currents Weather Stations Pressure Air Temp Water Temp Dewpoint Dewpoint Depression Visibility Wind Speed Wind Dir Waves Ship Positions

Lovundjenta

Last reported at 2017-May-15 19:43 UTC. Time now 2017-May-25 12:39 UTC.
Position N 66°22' E 012°24'.
Warning: this ship's position is 9 days out of date.

Length 15 m.

MMSI: 257788900.

Date/timePositionNaut miles runAvg speedWind from/ knotsBaromVisibWave heightAir tempDewpointWater temp
2017-May-15 19:43N 66°22' E 012°24'1 1.9
2017-May-15 19:18N 66°22' E 012°22'1 0.5
2017-May-15 18:07N 66°22' E 012°24'0 0.0
2017-May-15 03:42N 66°22' E 012°24'1 2.1
2017-May-15 03:15N 66°22' E 012°22'0 0.0
2017-May-15 02:57N 66°22' E 012°22'0 0.0
2017-May-15 01:45N 66°22' E 012°22'0 0.0
2017-May-15 01:21N 66°22' E 012°22'0 0.0
2017-May-15 00:33N 66°22' E 012°22'0 0.0
2017-May-15 00:21N 66°22' E 012°22'0 0.0
2017-May-14 23:51N 66°22' E 012°22'0 0.0
2017-May-14 23:21N 66°22' E 012°22'0 0.0
2017-May-14 22:51N 66°22' E 012°22'0 0.0
2017-May-14 22:27N 66°22' E 012°22'0 0.0
2017-May-14 21:45N 66°22' E 012°22'0 0.0
2017-May-14 21:27N 66°22' E 012°22'0 0.0
2017-May-14 04:33N 66°22' E 012°22'0 0.0
2017-May-14 04:15N 66°22' E 012°22'0 0.0
2017-May-14 03:45N 66°22' E 012°22'0 0.0
2017-May-14 02:45N 66°22' E 012°22'0 0.0
2017-May-13 22:45N 66°22' E 012°22'0 0.0
2017-May-13 15:27N 66°22' E 012°22'0 0.4
2017-May-13 14:45N 66°22' E 012°22'0 0.9
2017-May-13 14:28N 66°22' E 012°22'1010.1
2017-May-13 13:29N 66°30' E 012°06'0 0.0
2017-May-13 12:59N 66°30' E 012°06'0 0.0
2017-May-13 12:29N 66°30' E 012°06'0 0.0
2017-May-13 11:59N 66°30' E 012°06'1 2.2
2017-May-13 11:30N 66°30' E 012°04'0 0.1
2017-May-13 11:00N 66°30' E 012°04'0 0.0
2017-May-13 10:30N 66°30' E 012°04'0 0.0
2017-May-13 10:00N 66°30' E 012°04'0 0.0
2017-May-13 09:30N 66°30' E 012°04'0 0.0
2017-May-13 09:00N 66°30' E 012°04'5 9.5
2017-May-13 08:30N 66°26' E 012°10'612.3
2017-May-13 08:00N 66°22' E 012°21'0 0.0
2017-May-13 07:30N 66°22' E 012°21'0 0.3
2017-May-13 05:57N 66°22' E 012°22'0 0.0
2017-May-13 04:21N 66°22' E 012°22'0 0.0
2017-May-13 03:45N 66°22' E 012°22'0 0.0
2017-May-13 03:09N 66°22' E 012°22'0 0.0
2017-May-13 02:57N 66°22' E 012°22'0 0.0
2017-May-13 02:09N 66°22' E 012°22'0 0.0
2017-May-13 01:57N 66°22' E 012°22'0 0.0
2017-May-13 01:27N 66°22' E 012°22'0 0.0
2017-May-13 00:58N 66°22' E 012°22'0 0.0
2017-May-13 00:15N 66°22' E 012°22'0 0.0
2017-May-12 23:45N 66°22' E 012°22'0 0.0
2017-May-12 23:21N 66°22' E 012°22'0 0.0
2017-May-12 22:57N 66°22' E 012°22'0 0.0
2017-May-12 21:27N 66°22' E 012°22'0 0.0
2017-May-12 20:39N 66°22' E 012°22'  
2017-May-10 04:38N 66°23' E 012°26'2 0.9
2017-May-10 02:27N 66°22' E 012°22'0 0.0
2017-May-10 01:51N 66°22' E 012°22'0 0.0
2017-May-10 01:09N 66°22' E 012°22'0 0.0
2017-May-10 00:51N 66°22' E 012°22'0 0.0
2017-May-09 22:51N 66°22' E 012°22'0 0.0
2017-May-09 22:09N 66°22' E 012°22'0 0.0
2017-May-09 20:45N 66°22' E 012°22'1 0.1
2017-May-09 04:29N 66°23' E 012°25'1 0.6
2017-May-09 02:14N 66°22' E 012°22'0 0.0
2017-May-09 01:56N 66°22' E 012°22'0 0.0
2017-May-09 01:26N 66°22' E 012°22'0 0.0
2017-May-09 00:50N 66°22' E 012°22'0 0.0
2017-May-09 00:20N 66°22' E 012°22'0 0.0
2017-May-08 23:44N 66°22' E 012°22'0 0.0
2017-May-08 23:26N 66°22' E 012°22'0 0.0
2017-May-08 22:56N 66°22' E 012°22'0 0.0
2017-May-08 22:08N 66°22' E 012°22'0 0.0
2017-May-08 21:56N 66°22' E 012°22'0 0.0
2017-May-08 21:20N 66°22' E 012°22'0 0.0
2017-May-08 20:32N 66°22' E 012°22'0 0.0
2017-May-08 16:50N 66°22' E 012°22'0 0.0
2017-May-08 15:50N 66°22' E 012°22'0 0.0
2017-May-08 14:08N 66°22' E 012°22'  
Track history (hours):
 
Tides and Currents Weather Stations Pressure Air Temp Water Temp Dewpoint Dewpoint Depression Visibility Wind Speed Wind Dir Waves Ship Positions

Lovundjenta

Last reported at 2017-May-15 19:43 UTC. Time now 2017-May-25 12:39 UTC.
Position N 66°22' E 012°24'.
Warning: this ship's position is 9 days out of date.

Length 15 m.

MMSI: 257788900.

Date/timePositionNaut miles runAvg speedWind from/ knotsBaromVisibWave heightAir tempDewpointWater temp
2017-May-15 19:43N 66°22' E 012°24'1 1.9
2017-May-15 19:18N 66°22' E 012°22'1 0.5
2017-May-15 18:07N 66°22' E 012°24'0 0.0
2017-May-15 03:42N 66°22' E 012°24'1 2.1
2017-May-15 03:15N 66°22' E 012°22'0 0.0
2017-May-15 02:57N 66°22' E 012°22'0 0.0
2017-May-15 01:45N 66°22' E 012°22'0 0.0
2017-May-15 01:21N 66°22' E 012°22'0 0.0
2017-May-15 00:33N 66°22' E 012°22'0 0.0
2017-May-15 00:21N 66°22' E 012°22'0 0.0
2017-May-14 23:51N 66°22' E 012°22'0 0.0
2017-May-14 23:21N 66°22' E 012°22'0 0.0
2017-May-14 22:51N 66°22' E 012°22'0 0.0
2017-May-14 22:27N 66°22' E 012°22'0 0.0
2017-May-14 21:45N 66°22' E 012°22'0 0.0
2017-May-14 21:27N 66°22' E 012°22'0 0.0
2017-May-14 04:33N 66°22' E 012°22'0 0.0
2017-May-14 04:15N 66°22' E 012°22'0 0.0
2017-May-14 03:45N 66°22' E 012°22'0 0.0
2017-May-14 02:45N 66°22' E 012°22'0 0.0
2017-May-13 22:45N 66°22' E 012°22'0 0.0
2017-May-13 15:27N 66°22' E 012°22'0 0.4
2017-May-13 14:45N 66°22' E 012°22'0 0.9
2017-May-13 14:28N 66°22' E 012°22'1010.1
2017-May-13 13:29N 66°30' E 012°06'0 0.0
2017-May-13 12:59N 66°30' E 012°06'0 0.0
2017-May-13 12:29N 66°30' E 012°06'0 0.0
2017-May-13 11:59N 66°30' E 012°06'1 2.2
2017-May-13 11:30N 66°30' E 012°04'0 0.1
2017-May-13 11:00N 66°30' E 012°04'0 0.0
2017-May-13 10:30N 66°30' E 012°04'0 0.0
2017-May-13 10:00N 66°30' E 012°04'0 0.0
2017-May-13 09:30N 66°30' E 012°04'0 0.0
2017-May-13 09:00N 66°30' E 012°04'5 9.5
2017-May-13 08:30N 66°26' E 012°10'612.3
2017-May-13 08:00N 66°22' E 012°21'0 0.0
2017-May-13 07:30N 66°22' E 012°21'0 0.3
2017-May-13 05:57N 66°22' E 012°22'0 0.0
2017-May-13 04:21N 66°22' E 012°22'0 0.0
2017-May-13 03:45N 66°22' E 012°22'0 0.0
2017-May-13 03:09N 66°22' E 012°22'0 0.0
2017-May-13 02:57N 66°22' E 012°22'0 0.0
2017-May-13 02:09N 66°22' E 012°22'0 0.0
2017-May-13 01:57N 66°22' E 012°22'0 0.0
2017-May-13 01:27N 66°22' E 012°22'0 0.0
2017-May-13 00:58N 66°22' E 012°22'0 0.0
2017-May-13 00:15N 66°22' E 012°22'0 0.0
2017-May-12 23:45N 66°22' E 012°22'0 0.0
2017-May-12 23:21N 66°22' E 012°22'0 0.0
2017-May-12 22:57N 66°22' E 012°22'0 0.0
2017-May-12 21:27N 66°22' E 012°22'0 0.0
2017-May-12 20:39N 66°22' E 012°22'  
2017-May-10 04:38N 66°23' E 012°26'2 0.9
2017-May-10 02:27N 66°22' E 012°22'0 0.0
2017-May-10 01:51N 66°22' E 012°22'0 0.0
2017-May-10 01:09N 66°22' E 012°22'0 0.0
2017-May-10 00:51N 66°22' E 012°22'0 0.0
2017-May-09 22:51N 66°22' E 012°22'0 0.0
2017-May-09 22:09N 66°22' E 012°22'0 0.0
2017-May-09 20:45N 66°22' E 012°22'1 0.1
2017-May-09 04:29N 66°23' E 012°25'1 0.6
2017-May-09 02:14N 66°22' E 012°22'0 0.0
2017-May-09 01:56N 66°22' E 012°22'0 0.0
2017-May-09 01:26N 66°22' E 012°22'0 0.0
2017-May-09 00:50N 66°22' E 012°22'0 0.0
2017-May-09 00:20N 66°22' E 012°22'0 0.0
2017-May-08 23:44N 66°22' E 012°22'0 0.0
2017-May-08 23:26N 66°22' E 012°22'0 0.0
2017-May-08 22:56N 66°22' E 012°22'0 0.0
2017-May-08 22:08N 66°22' E 012°22'0 0.0
2017-May-08 21:56N 66°22' E 012°22'0 0.0
2017-May-08 21:20N 66°22' E 012°22'0 0.0
2017-May-08 20:32N 66°22' E 012°22'0 0.0
2017-May-08 16:50N 66°22' E 012°22'0 0.0
2017-May-08 15:50N 66°22' E 012°22'0 0.0
2017-May-08 14:08N 66°22' E 012°22'  

Dump ship's entire track history